Cape York — VRXE9 — position and weather

sailwx.info

Track history (hours):
 
Tides and Currents Weather Stations Pressure Air Temp Water Temp Dewpoint Dewpoint Depression Visibility Wind Speed Wind Dir Waves Ship Positions

Cape York

Last reported at 2016-Jul-07 01:11 UTC. Time now 2016-Jul-25 02:27 UTC.
Position S 39°08' E 147°10'.
Warning: this ship's position is 18 days out of date.

Length 170 m; draft 5.9 m.

Type: Cargo ship. MMSI: 477924000.

Date/timePositionNaut miles runAvg speedWind from/ knotsBaromVisibWave heightAir tempDewpointWater temp
2016-Jul-07 01:11S 39°08' E 147°10'4 6.9
2016-Jul-07 00:33S 39°08' E 147°05'7 6.6
2016-Jul-06 23:33S 39°08' E 146°56'8 8.3
2016-Jul-06 22:33S 39°12' E 146°47'10 9.7
2016-Jul-06 21:34S 39°17' E 146°37'10 9.5
2016-Jul-06 20:33S 39°16' E 146°24'10 9.8
2016-Jul-06 19:33S 39°16' E 146°12'10 9.8
2016-Jul-06 18:32S 39°16' E 145°59'176 9.7
2016-Jul-06 00:28S 38°40' E 142°17'8 9.0
2016-Jul-05 23:33S 38°36' E 142°08'10 8.6
2016-Jul-05 22:22S 38°30' E 141°58'3 0.1
2016-Jul-04 22:05S 38°29' E 141°55'4 7.1
2016-Jul-04 21:33S 38°30' E 141°59'1010.4
2016-Jul-04 20:33S 38°37' E 142°10'1211.6
2016-Jul-04 19:32S 38°43' E 142°22'  
2016-Jul-02 09:33S 39°08' E 146°01'9 9.0
2016-Jul-02 08:33S 39°12' E 146°12'9 9.0
2016-Jul-02 07:33S 39°11' E 146°23'10 9.7
2016-Jul-02 06:33S 39°08' E 146°36'20 9.9
2016-Jul-02 04:33S 39°02' E 146°60'9 8.9
2016-Jul-02 03:33S 38°59' E 147°11'102 9.8
2016-Jul-01 17:06S 38°13' E 149°07'5 9.8
2016-Jul-01 16:33S 38°10' E 149°13'10 9.7
2016-Jul-01 15:33S 38°05' E 149°23'9 9.1
2016-Jul-01 14:33S 38°00' E 149°33'8 8.4
2016-Jul-01 13:33S 37°56' E 149°42'8 8.2
2016-Jul-01 12:33S 37°51' E 149°50'8 8.3
2016-Jul-01 11:33S 37°46' E 149°59'8 8.1
2016-Jul-01 10:33S 37°42' E 150°08'7 7.5
2016-Jul-01 09:34S 37°36' E 150°14'8 8.2
2016-Jul-01 08:33S 37°29' E 150°18'9 8.9
2016-Jul-01 07:33S 37°21' E 150°22'10 9.6
2016-Jul-01 06:34S 37°12' E 150°27'9 9.4
2016-Jul-01 05:33S 37°03' E 150°32'10 9.7
2016-Jul-01 04:34S 36°54' E 150°37'  
2016-Jun-28 17:28S 26°50' E 153°09'1212.6
2016-Jun-28 16:33S 27°00' E 153°14'1110.9
2016-Jun-28 15:33S 27°09' E 153°21'1312.5
2016-Jun-28 14:33S 27°19' E 153°12'8 7.6
2016-Jun-28 13:33S 27°26' E 153°07'0 0.1
2016-Jun-28 12:31S 27°26' E 153°07'0 0.0
2016-Jun-28 11:31S 27°26' E 153°07'0 0.0
2016-Jun-28 10:31S 27°26' E 153°07'0 0.0
2016-Jun-28 09:31S 27°26' E 153°07'0 0.0
2016-Jun-28 08:28S 27°26' E 153°07'0 0.0
2016-Jun-28 07:28S 27°26' E 153°07'0 0.0
2016-Jun-28 06:31S 27°26' E 153°07'0 0.0
2016-Jun-28 04:31S 27°26' E 153°07'0 0.0
2016-Jun-28 03:31S 27°26' E 153°07'0 0.0
2016-Jun-28 02:31S 27°26' E 153°07'0 0.0
2016-Jun-28 01:31S 27°26' E 153°07'0 0.0
2016-Jun-28 00:25S 27°26' E 153°07'0 0.0
2016-Jun-27 23:31S 27°26' E 153°07'0 0.0
2016-Jun-27 22:31S 27°26' E 153°07'0 0.0
2016-Jun-27 21:25S 27°26' E 153°07'0 0.0
2016-Jun-27 20:31S 27°26' E 153°07'0 0.0
2016-Jun-27 19:31S 27°26' E 153°07'0 0.0
2016-Jun-27 18:31S 27°26' E 153°07'0 0.0
2016-Jun-27 17:31S 27°26' E 153°07'0 0.0
2016-Jun-27 16:31S 27°26' E 153°07'0 0.0
2016-Jun-27 15:31S 27°26' E 153°07'0 0.0
2016-Jun-27 14:31S 27°26' E 153°07'0 0.0
2016-Jun-27 13:07S 27°26' E 153°07'0 0.0
2016-Jun-27 12:31S 27°26' E 153°07'0 0.0
2016-Jun-27 11:28S 27°26' E 153°07'0 0.0
2016-Jun-27 10:34S 27°26' E 153°07'0 0.0
2016-Jun-27 09:34S 27°26' E 153°07'0 0.0
2016-Jun-27 08:33S 27°26' E 153°07'0 0.0
2016-Jun-27 07:33S 27°26' E 153°07'0 0.0
2016-Jun-27 04:27S 27°26' E 153°07'0 0.0
2016-Jun-27 03:30S 27°26' E 153°07'0 0.0
2016-Jun-27 02:30S 27°26' E 153°07'0 0.0
2016-Jun-27 01:27S 27°26' E 153°07'  
Track history (hours):
 
Tides and Currents Weather Stations Pressure Air Temp Water Temp Dewpoint Dewpoint Depression Visibility Wind Speed Wind Dir Waves Ship Positions

Cape York

Last reported at 2016-Jul-07 01:11 UTC. Time now 2016-Jul-25 02:27 UTC.
Position S 39°08' E 147°10'.
Warning: this ship's position is 18 days out of date.

Length 170 m; draft 5.9 m.

Type: Cargo ship. MMSI: 477924000.

Date/timePositionNaut miles runAvg speedWind from/ knotsBaromVisibWave heightAir tempDewpointWater temp
2016-Jul-07 01:11S 39°08' E 147°10'4 6.9
2016-Jul-07 00:33S 39°08' E 147°05'7 6.6
2016-Jul-06 23:33S 39°08' E 146°56'8 8.3
2016-Jul-06 22:33S 39°12' E 146°47'10 9.7
2016-Jul-06 21:34S 39°17' E 146°37'10 9.5
2016-Jul-06 20:33S 39°16' E 146°24'10 9.8
2016-Jul-06 19:33S 39°16' E 146°12'10 9.8
2016-Jul-06 18:32S 39°16' E 145°59'176 9.7
2016-Jul-06 00:28S 38°40' E 142°17'8 9.0
2016-Jul-05 23:33S 38°36' E 142°08'10 8.6
2016-Jul-05 22:22S 38°30' E 141°58'3 0.1
2016-Jul-04 22:05S 38°29' E 141°55'4 7.1
2016-Jul-04 21:33S 38°30' E 141°59'1010.4
2016-Jul-04 20:33S 38°37' E 142°10'1211.6
2016-Jul-04 19:32S 38°43' E 142°22'  
2016-Jul-02 09:33S 39°08' E 146°01'9 9.0
2016-Jul-02 08:33S 39°12' E 146°12'9 9.0
2016-Jul-02 07:33S 39°11' E 146°23'10 9.7
2016-Jul-02 06:33S 39°08' E 146°36'20 9.9
2016-Jul-02 04:33S 39°02' E 146°60'9 8.9
2016-Jul-02 03:33S 38°59' E 147°11'102 9.8
2016-Jul-01 17:06S 38°13' E 149°07'5 9.8
2016-Jul-01 16:33S 38°10' E 149°13'10 9.7
2016-Jul-01 15:33S 38°05' E 149°23'9 9.1
2016-Jul-01 14:33S 38°00' E 149°33'8 8.4
2016-Jul-01 13:33S 37°56' E 149°42'8 8.2
2016-Jul-01 12:33S 37°51' E 149°50'8 8.3
2016-Jul-01 11:33S 37°46' E 149°59'8 8.1
2016-Jul-01 10:33S 37°42' E 150°08'7 7.5
2016-Jul-01 09:34S 37°36' E 150°14'8 8.2
2016-Jul-01 08:33S 37°29' E 150°18'9 8.9
2016-Jul-01 07:33S 37°21' E 150°22'10 9.6
2016-Jul-01 06:34S 37°12' E 150°27'9 9.4
2016-Jul-01 05:33S 37°03' E 150°32'10 9.7
2016-Jul-01 04:34S 36°54' E 150°37'  
2016-Jun-28 17:28S 26°50' E 153°09'1212.6
2016-Jun-28 16:33S 27°00' E 153°14'1110.9
2016-Jun-28 15:33S 27°09' E 153°21'1312.5
2016-Jun-28 14:33S 27°19' E 153°12'8 7.6
2016-Jun-28 13:33S 27°26' E 153°07'0 0.1
2016-Jun-28 12:31S 27°26' E 153°07'0 0.0
2016-Jun-28 11:31S 27°26' E 153°07'0 0.0
2016-Jun-28 10:31S 27°26' E 153°07'0 0.0
2016-Jun-28 09:31S 27°26' E 153°07'0 0.0
2016-Jun-28 08:28S 27°26' E 153°07'0 0.0
2016-Jun-28 07:28S 27°26' E 153°07'0 0.0
2016-Jun-28 06:31S 27°26' E 153°07'0 0.0
2016-Jun-28 04:31S 27°26' E 153°07'0 0.0
2016-Jun-28 03:31S 27°26' E 153°07'0 0.0
2016-Jun-28 02:31S 27°26' E 153°07'0 0.0
2016-Jun-28 01:31S 27°26' E 153°07'0 0.0
2016-Jun-28 00:25S 27°26' E 153°07'0 0.0
2016-Jun-27 23:31S 27°26' E 153°07'0 0.0
2016-Jun-27 22:31S 27°26' E 153°07'0 0.0
2016-Jun-27 21:25S 27°26' E 153°07'0 0.0
2016-Jun-27 20:31S 27°26' E 153°07'0 0.0
2016-Jun-27 19:31S 27°26' E 153°07'0 0.0
2016-Jun-27 18:31S 27°26' E 153°07'0 0.0
2016-Jun-27 17:31S 27°26' E 153°07'0 0.0
2016-Jun-27 16:31S 27°26' E 153°07'0 0.0
2016-Jun-27 15:31S 27°26' E 153°07'0 0.0
2016-Jun-27 14:31S 27°26' E 153°07'0 0.0
2016-Jun-27 13:07S 27°26' E 153°07'0 0.0
2016-Jun-27 12:31S 27°26' E 153°07'0 0.0
2016-Jun-27 11:28S 27°26' E 153°07'0 0.0
2016-Jun-27 10:34S 27°26' E 153°07'0 0.0
2016-Jun-27 09:34S 27°26' E 153°07'0 0.0
2016-Jun-27 08:33S 27°26' E 153°07'0 0.0
2016-Jun-27 07:33S 27°26' E 153°07'0 0.0
2016-Jun-27 04:27S 27°26' E 153°07'0 0.0
2016-Jun-27 03:30S 27°26' E 153°07'0 0.0
2016-Jun-27 02:30S 27°26' E 153°07'0 0.0
2016-Jun-27 01:27S 27°26' E 153°07'  

Dump ship's entire track history